ADDS METAR Data INFO
IDs: Format: Raw Decoded Include TAF

Data at: 0749 UTC 17 Oct 2017

KPQN 170734Z AUTO 00000KT 10SM CLR 06/03 A3003 RMK AO2
KPQN 170714Z AUTO 00000KT 10SM CLR 07/03 A3003 RMK AO2
KPQN 170653Z AUTO 00000KT 10SM CLR 08/03 A3002 RMK AO2
KPQN 170634Z AUTO 00000KT 10SM CLR 08/03 A3001 RMK AO2
KPQN 170613Z AUTO 00000KT 10SM CLR 09/03 A3001 RMK AO2
KPQN 170554Z AUTO 00000KT 10SM CLR 08/03 A3001 RMK AO2
KPQN 170534Z AUTO 23004KT 10SM CLR 08/03 A3001 RMK AO2
KPQN 170513Z AUTO 23003KT 10SM CLR 08/03 A3001 RMK AO2
KPQN 170454Z AUTO 22004KT 10SM CLR 09/03 A3001 RMK AO2
KPQN 170434Z AUTO 23004KT 10SM CLR 08/03 A3001 RMK AO2
KPQN 170413Z AUTO 24004KT 10SM CLR 09/04 A3001 RMK AO2
KPQN 170354Z AUTO 25003KT 10SM CLR 09/04 A3002 RMK AO2
KPQN 170334Z AUTO 00000KT 10SM CLR 09/03 A3001 RMK AO2
KPQN 170314Z AUTO 22004KT 10SM CLR 10/04 A3001 RMK AO2
KPQN 170254Z AUTO 00000KT 10SM CLR 10/04 A3001 RMK AO2
KPQN 170234Z AUTO 23004KT 10SM CLR 11/04 A3000 RMK AO2
KPQN 170214Z AUTO 26003KT 10SM CLR 12/04 A3001 RMK AO2
KPQN 170154Z AUTO 27003KT 10SM CLR 13/04 A3001 RMK AO2
KPQN 170134Z AUTO 23005KT 10SM CLR 13/04 A2999 RMK AO2
KPQN 170114Z AUTO 24006KT 7SM CLR 13/04 A3000 RMK AO2
KPQN 170054Z AUTO 22004KT 10SM CLR 13/04 A3000 RMK AO2
KPQN 170033Z AUTO 22004KT 10SM CLR 14/04 A3000 RMK AO2
KPQN 170014Z AUTO 21004KT 10SM CLR 14/04 A3000 RMK AO2
KPQN 162354Z AUTO 21004KT 10SM CLR 16/03 A3000 RMK AO2
KPQN 162333Z AUTO 21003KT 7SM CLR 18/03 A3000 RMK AO2
KPQN 162314Z AUTO 22004KT 10SM CLR 19/03 A3000 RMK AO2
KPQN 162253Z AUTO 22005KT 10SM CLR 19/03 A3000 RMK AO2
KPQN 162234Z AUTO 23008KT 10SM CLR 21/03 A3001 RMK AO2
KPQN 162214Z AUTO 23011G16KT 10SM CLR 21/02 A3001 RMK AO2
KPQN 162153Z AUTO 22013G17KT 10SM CLR 22/02 A3001 RMK AO2
KPQN 162134Z AUTO 22013G16KT 10SM CLR 22/02 A3001 RMK AO2
KPQN 162114Z AUTO 22016KT 10SM CLR 21/02 A3001 RMK AO2
KPQN 162054Z AUTO 22016G20KT 10SM CLR 22/02 A3002 RMK AO2
KPQN 162034Z AUTO 22014G21KT 10SM CLR 21/02 A3003 RMK AO2
KPQN 162014Z AUTO 22013G20KT 10SM CLR 21/02 A3003 RMK AO2
KPQN 161954Z AUTO 21014G18KT 10SM CLR 21/02 A3004 RMK AO2
KPQN 161934Z AUTO 22015G20KT 10SM CLR 20/01 A3006 RMK AO2
KPQN 161914Z AUTO 22012G17KT 10SM CLR 20/02 A3007 RMK AO2
KPQN 161854Z AUTO 22011G17KT 10SM CLR 19/02 A3008 RMK AO2
KPQN 161834Z AUTO 22011G17KT 10SM CLR 19/02 A3010 RMK AO2
KPQN 161813Z AUTO 21014KT 10SM CLR 19/02 A3011 RMK AO2
KPQN 161754Z AUTO 23013G16KT 10SM CLR 18/02 A3013 RMK AO2
KPQN 161734Z AUTO 22015G19KT 10SM CLR 17/02 A3015 RMK AO2
KPQN 161713Z AUTO 22010G17KT 10SM CLR 17/02 A3016 RMK AO2
KPQN 161654Z AUTO 23013KT 10SM CLR 16/02 A3016 RMK AO2
KPQN 161634Z AUTO 22012KT 10SM CLR 14/02 A3017 RMK AO2
KPQN 161613Z AUTO 22014KT 10SM CLR 13/02 A3019 RMK AO2
KPQN 161554Z AUTO 22013G18KT 10SM CLR 13/03 A3020 RMK AO2
KPQN 161534Z AUTO 23008KT 10SM CLR 12/03 A3020 RMK AO2
KPQN 161514Z AUTO 22009KT 10SM CLR 11/03 A3021 RMK AO2
KPQN 161454Z AUTO 20009KT 10SM CLR 09/03 A3021 RMK AO2
KPQN 161433Z AUTO 21004KT 10SM CLR 08/03 A3021 RMK AO2
KPQN 161414Z AUTO 21005KT 10SM CLR 06/02 A3022 RMK AO2
KPQN 161354Z AUTO 18005KT 10SM CLR 04/01 A3022 RMK AO2
KPQN 161333Z AUTO 00000KT 10SM CLR 03/M01 A3022 RMK AO2
KPQN 161314Z AUTO 14003KT 10SM CLR 02/M01 A3022 RMK AO2
KPQN 161254Z AUTO 16003KT 10SM CLR 02/M01 A3022 RMK AO2
KPQN 161233Z AUTO 17003KT 10SM CLR 02/M01 A3022 RMK AO2
KPQN 161214Z AUTO 15003KT 10SM CLR 02/M01 A3022 RMK AO2
KPQN 161154Z AUTO 00000KT 10SM CLR 01/M01 A3023 RMK AO2
KPQN 161134Z AUTO 23003KT 10SM CLR 01/M01 A3024 RMK AO2
KPQN 161114Z AUTO 22003KT 10SM CLR 01/M01 A3024 RMK AO2
KPQN 161054Z AUTO 00000KT 10SM CLR 01/M01 A3024 RMK AO2
KPQN 161034Z AUTO 00000KT 10SM CLR 01/M01 A3025 RMK AO2
KPQN 161014Z AUTO 00000KT 10SM CLR 01/M01 A3025 RMK AO2
KPQN 160954Z AUTO 00000KT 10SM CLR 01/M01 A3024 RMK AO2
KPQN 160934Z AUTO 00000KT 10SM CLR 01/M01 A3025 RMK AO2
KPQN 160914Z AUTO 23003KT 10SM CLR 01/M01 A3026 RMK AO2
KPQN 160853Z AUTO 25003KT 10SM CLR 01/M01 A3026 RMK AO2
KPQN 160834Z AUTO 24004KT 10SM CLR 01/M01 A3026 RMK AO2
KPQN 160814Z AUTO 00000KT 10SM CLR 01/M01 A3025 RMK AO2
KPQN 160753Z AUTO 00000KT 10SM CLR 02/M01 A3026 RMK AO2
KPQN 160734Z AUTO 00000KT 10SM CLR 01/M01 A3026 RMK AO2
KPQN 160714Z AUTO 00000KT 10SM CLR 01/M01 A3026 RMK AO2
KPQN 160654Z AUTO 10SM CLR 02/00 A3026 RMK AO2
KPQN 160633Z AUTO 26003KT 10SM CLR 02/M0 A3026 RMK AO2
KPQN 160612Z AUTO 27003KT 10SM CLR 03/00 A3026 RMK AO2
KPQN 160554Z AUTO 29004KT 10SM CLR 05/01 A3026 RMK AO2
KPQN 160534Z AUTO 30005KT 10SM CLR 03/01 A3026 RMK AO2
KPQN 160514Z AUTO 28005KT 10SM CLR 02/00 A3026 RMK AO2
KPQN 160453Z AUTO 27004KT 10SM CLR 03/00 A3026 RMK AO2
KPQN 160434Z AUTO 27004KT 10SM CLR 04/01 A3026 RMK AO2
KPQN 160414Z AUTO 28004KT 10SM 06/02 A3025 RMK AO2
KPQN 160353Z AUTO 28005KT 10SM CLR 06/02 A3025 RMK AO2
KPQN 160334Z AUTO 28005KT 10SM CLR 06/02 A3025 RMK AO2
KPQN 160314Z AUTO 28005KT 10SM CLR 06/02 A3025 RMK AO2
KPQN 160253Z AUTO 27005KT 10SM CLR 06/02 A3024 RMK AO2
KPQN 160234Z AUTO 28004KT 10SM CLR 07/02 A3024 RMK AO2
KPQN 160214Z AUTO 28003KT 10SM CLR 07/02 A3024 RMK AO2
KPQN 160154Z AUTO 27003KT 10SM CLR 07/02 A3024 RMK AO2
KPQN 160127Z AUTO 00000KT 10SM CLR 08/02 A3023 RMK AO2
KPQN 160114Z AUTO 27003KT 10SM CLR 07/02 A3023 RMK AO2
KPQN 160054Z AUTO 25003KT 10SM CLR 08/02 A3022 RMK AO2
KPQN 160034Z AUTO 27003KT 10SM 09/02 A3022 RMK AO2
KPQN 152359Z AUTO 29003KT 10SM SCT055 10/02 A3022 RMK AO2
KPQN 152354Z AUTO 29003KT 10SM SCT055 11/0 RMK AO2
KPQN 152334Z AUTO 30005KT 10SM BKN055 11/02 A3021 RMK AO2
KPQN 152314Z AUTO 30007KT 10SM CLR 12/02 A3021 RMK AO2
KPQN 152254Z AUTO 31009G15KT 10SM CLR 13/01 A3021 RMK AO2
KPQN 152233Z AUTO 30011G18KT 10SM CLR 13/01 A3020 RMK AO2
KPQN 152214Z AUTO 32010G17KT 10SM CLR 13/00 A3020 RMK AO2
KPQN 152154Z AUTO 30014KT 10SM SCT055 14/00 A3020 RMK AO2
KPQN 152134Z AUTO 28015G21KT 10SM /01 A3020 RMK AO2
KPQN 152114Z AUTO 29016G22KT 10SM SCT055 BKN090 14/01 A3020 RMK AO2
KPQN 152054Z AUTO 27018G21KT 10SM SCT100 14 A3020 RMK AO2
KPQN 152034Z AUTO 27017G23KT 10SM BKN100 14/02 A3020 RMK AO2
KPQN 152014Z AUTO 26012G18KT 10SM SCT100 13/02 A3020 RMK AO2
KPQN 151954Z AUTO 26012G20KT 10SM SCT100 12/02 A3021 RMK AO2